Time;durP1;ratioP1;P1;durP2;ratioP2;P2;SDS_P1;SDS_P2;PMS_P1;PMS_P2;Temp;Humidity;BMP_temperature;BMP_pressure;BME280_temperature;BME280_humidity;BME280_pressure;Samples;Min_cycle;Max_cycle;Signal;HPM_P1;HPM_P2
2022/09/22 00:01:31;;;;;;;52.27;18.63;;;10.40;72.30;;;;;;5039424;28;21143;-76
2022/09/22 00:04:02;;;;;;;66.43;19.20;;;10.40;72.30;;;;;;5040934;28;20562;-77
2022/09/22 00:06:32;;;;;;;54.67;17.07;;;10.40;72.30;;;;;;5043449;28;20874;-78
2022/09/22 00:09:03;;;;;;;41.97;15.90;;;10.40;72.30;;;;;;5045126;28;20473;-77
2022/09/22 00:11:35;;;;;;;35.80;12.00;;;10.30;72.20;;;;;;5044010;28;20689;-76
2022/09/22 00:14:06;;;;;;;29.23;10.90;;;10.30;72.30;;;;;;5045783;28;20481;-76
2022/09/22 00:16:37;;;;;;;35.00;11.47;;;10.20;72.30;;;;;;5045721;28;20463;-77
2022/09/22 00:19:06;;;;;;;40.47;12.77;;;10.20;72.30;;;;;;5042213;28;20478;-77
2022/09/22 00:21:34;;;;;;;47.10;16.00;;;10.20;72.30;;;;;;5043688;28;21350;-77
2022/09/22 00:24:06;;;;;;;44.50;16.00;;;10.10;72.30;;;;;;5044863;28;20474;-77
2022/09/22 00:26:35;;;;;;;53.07;16.73;;;10.10;72.40;;;;;;5043836;28;20467;-77
2022/09/22 00:29:05;;;;;;;37.57;12.90;;;10.10;72.40;;;;;;5033697;28;20533;-76
2022/09/22 00:31:33;;;;;;;31.60;11.37;;;10.10;72.40;;;;;;5043099;28;20469;-78
2022/09/22 00:34:01;;;;;;;40.57;12.77;;;10.10;72.50;;;;;;5047364;28;20885;-75
2022/09/22 00:36:30;;;;;;;31.07;12.20;;;10.10;72.50;;;;;;5046655;28;20471;-77
2022/09/22 00:38:59;;;;;;;31.53;11.33;;;10.10;72.40;;;;;;5045782;28;20455;-77
2022/09/22 00:41:31;;;;;;;22.13;8.20;;;10.10;72.40;;;;;;5047060;28;20458;-78
2022/09/22 00:44:34;;;;;;;15.93;6.70;;;10.00;72.40;;;;;;5046251;28;20490;-75
2022/09/22 00:47:13;;;;;;;17.10;7.20;;;10.00;72.40;;;;;;5041067;28;21199;-77
2022/09/22 00:49:46;;;;;;;58.55;21.23;;;10.00;72.40;;;;;;5045810;28;20490;-76
2022/09/22 00:52:18;;;;;;;17.73;7.23;;;10.00;72.40;;;;;;5046009;28;20283;-77
2022/09/22 00:54:47;;;;;;;10.07;5.17;;;9.90;72.40;;;;;;5046246;28;20490;-77
2022/09/22 00:57:19;;;;;;;23.57;9.10;;;9.90;72.30;;;;;;5047526;28;20474;-77
2022/09/22 00:59:49;;;;;;;14.87;6.33;;;9.90;72.40;;;;;;5046687;28;20451;-78
2022/09/22 01:02:18;;;;;;;10.90;5.00;;;9.90;72.40;;;;;;5045323;28;20514;-78
2022/09/22 01:04:49;;;;;;;7.53;4.57;;;9.80;72.40;;;;;;5045584;28;20563;-78
2022/09/22 01:07:18;;;;;;;17.43;5.47;;;9.80;72.40;;;;;;5046582;28;20566;-77
2022/09/22 01:09:45;;;;;;;18.50;8.23;;;9.80;72.50;;;;;;5045631;28;20478;-76
2022/09/22 01:12:14;;;;;;;106.93;33.97;;;9.80;72.50;;;;;;5044829;28;20450;-77
2022/09/22 01:14:53;;;;;;;111.57;33.50;;;9.80;72.50;;;;;;5046882;28;20563;-77
2022/09/22 01:17:30;;;;;;;50.53;17.40;;;9.80;72.60;;;;;;5046285;28;20944;-77
2022/09/22 01:20:39;;;;;;;12.80;7.20;;;9.80;72.60;;;;;;5044637;28;20532;-77
2022/09/22 01:23:40;;;;;;;20.10;8.57;;;9.80;72.60;;;;;;5046627;28;20991;-77
2022/09/22 01:26:41;;;;;;;48.90;15.30;;;9.80;72.60;;;;;;5047343;28;20661;-76
2022/09/22 01:29:33;;;;;;;183.63;40.97;;;9.80;72.60;;;;;;5048810;28;20528;-76
2022/09/22 01:32:09;;;;;;;46.83;12.90;;;9.80;72.60;;;;;;5047054;28;20479;-76
2022/09/22 01:34:44;;;;;;;21.33;5.78;;;9.70;72.60;;;;;;5048193;28;21034;-75
2022/09/22 01:37:19;;;;;;;43.60;11.15;;;9.70;72.50;;;;;;5045508;28;20224;-76
2022/09/22 01:39:52;;;;;;;109.90;26.13;;;9.70;72.60;;;;;;5046782;28;20247;-76
2022/09/22 01:42:27;;;;;;;209.77;46.33;;;9.70;72.60;;;;;;5043393;28;20262;-76
2022/09/22 01:44:59;;;;;;;149.57;32.70;;;9.70;72.70;;;;;;5046918;28;20512;-77
2022/09/22 01:47:35;;;;;;;53.93;16.57;;;9.60;72.70;;;;;;5045472;28;20478;-77
2022/09/22 01:50:09;;;;;;;14.33;5.80;;;9.60;72.70;;;;;;5049948;28;20863;-77
2022/09/22 01:52:39;;;;;;;40.87;10.67;;;9.60;72.70;;;;;;5044697;28;20493;-76
2022/09/22 01:55:13;;;;;;;58.80;13.93;;;9.60;72.70;;;;;;5052255;28;20475;-77
2022/09/22 01:57:46;;;;;;;50.87;19.57;;;9.60;72.70;;;;;;5045413;28;20486;-77
2022/09/22 02:00:14;;;;;;;13.07;6.60;;;9.60;72.70;;;;;;5045498;28;20867;-77
2022/09/22 02:02:50;;;;;;;9.57;4.03;;;9.60;72.70;;;;;;5048903;28;20618;-77
2022/09/22 02:05:23;;;;;;;10.20;4.15;;;9.60;72.70;;;;;;5048372;28;20239;-77
2022/09/22 02:07:54;;;;;;;8.93;4.50;;;9.60;72.70;;;;;;5045003;28;20201;-77
2022/09/22 02:10:31;;;;;;;8.27;5.33;;;9.60;72.70;;;;;;5048113;28;20471;-75
2022/09/22 02:13:00;;;;;;;12.63;7.50;;;9.60;72.70;;;;;;5046332;28;20490;-76
2022/09/22 02:18:27;;;;;;;7.57;4.67;;;9.60;72.70;;;;;;5045451;28;20208;-77
2022/09/22 02:20:56;;;;;;;7.70;3.90;;;9.50;72.70;;;;;;5045531;28;20459;-76
2022/09/22 02:23:25;;;;;;;7.20;4.03;;;9.50;72.70;;;;;;5044154;28;21020;-76
2022/09/22 02:25:55;;;;;;;7.17;4.50;;;9.50;72.70;;;;;;5045040;28;20221;-77
2022/09/22 02:28:24;;;;;;;8.60;4.77;;;9.50;72.70;;;;;;5044871;28;20527;-77
2022/09/22 02:30:56;;;;;;;7.37;4.33;;;9.50;72.70;;;;;;5044253;28;20562;-77
2022/09/22 02:33:45;;;;;;;7.80;4.40;;;9.40;72.70;;;;;;5045171;28;20585;-75
2022/09/22 02:36:29;;;;;;;7.28;3.95;;;9.40;72.70;;;;;;5046319;28;20442;-76
2022/09/22 02:39:04;;;;;;;7.00;4.10;;;9.40;72.60;;;;;;5043444;28;20208;-77
2022/09/22 02:41:40;;;;;;;7.77;4.20;;;9.40;72.60;;;;;;5048288;28;20831;-76
2022/09/22 02:44:13;;;;;;;7.50;4.72;;;9.30;72.60;;;;;;5042868;28;20490;-76
2022/09/22 02:46:46;;;;;;;8.90;4.47;;;9.30;72.60;;;;;;5045363;28;20257;-76
2022/09/22 02:49:18;;;;;;;6.65;3.97;;;9.30;72.60;;;;;;5043416;28;20459;-77
2022/09/22 02:51:49;;;;;;;7.72;4.13;;;9.30;72.60;;;;;;5045155;28;20271;-76
2022/09/22 02:54:17;;;;;;;7.37;4.00;;;9.30;72.60;;;;;;5044267;28;20711;-77
2022/09/22 02:56:45;;;;;;;7.07;3.90;;;9.30;72.60;;;;;;5043994;28;20509;-77
2022/09/22 02:59:13;;;;;;;6.70;4.50;;;9.30;72.50;;;;;;5044521;28;20219;-77
2022/09/22 03:01:40;;;;;;;7.88;4.80;;;9.20;72.50;;;;;;5044550;28;20213;-76
2022/09/22 03:04:08;;;;;;;8.00;3.95;;;9.20;72.50;;;;;;5044862;28;20234;-76
2022/09/22 03:06:38;;;;;;;9.33;4.53;;;9.20;72.50;;;;;;5046043;28;20212;-78
2022/09/22 03:09:06;;;;;;;8.30;4.70;;;9.20;72.50;;;;;;5044899;28;20462;-78
2022/09/22 03:11:34;;;;;;;8.50;4.35;;;9.20;72.50;;;;;;5050229;28;20566;-77
2022/09/22 03:14:02;;;;;;;14.83;5.37;;;9.10;72.50;;;;;;5044721;28;20236;-77
2022/09/22 03:16:29;;;;;;;12.97;5.10;;;9.10;72.50;;;;;;5043426;28;20467;-77
2022/09/22 03:18:58;;;;;;;10.02;5.20;;;9.10;72.50;;;;;;5045503;28;20467;-76
2022/09/22 03:21:25;;;;;;;11.18;5.28;;;9.00;72.50;;;;;;5045980;28;20283;-77
2022/09/22 03:23:55;;;;;;;7.45;4.45;;;9.00;72.60;;;;;;5044524;28;20221;-76
2022/09/22 03:26:23;;;;;;;10.27;4.67;;;9.00;72.60;;;;;;5045650;28;20208;-76
2022/09/22 03:28:52;;;;;;;8.82;4.38;;;9.00;72.60;;;;;;5043638;28;21499;-76
2022/09/22 03:31:20;;;;;;;8.90;4.50;;;9.00;72.70;;;;;;5042926;28;20256;-76
2022/09/22 03:33:48;;;;;;;8.85;4.18;;;9.00;72.70;;;;;;5044013;28;21006;-76
2022/09/22 03:36:19;;;;;;;6.60;4.60;;;9.00;72.60;;;;;;5044167;28;20286;-76
2022/09/22 03:38:47;;;;;;;8.30;4.25;;;9.00;72.60;;;;;;5043414;28;20697;-76
2022/09/22 03:41:16;;;;;;;7.13;3.95;;;9.00;72.60;;;;;;5042564;28;20196;-76
2022/09/22 03:43:44;;;;;;;9.40;4.60;;;9.00;72.60;;;;;;5042770;28;20224;-76
2022/09/22 03:46:13;;;;;;;6.90;3.87;;;9.00;72.60;;;;;;5052045;28;20201;-76
2022/09/22 03:48:41;;;;;;;8.33;3.70;;;9.00;72.60;;;;;;5041411;28;20463;-75
2022/09/22 03:51:12;;;;;;;8.32;3.90;;;8.90;72.60;;;;;;5044590;28;20475;-76
2022/09/22 03:53:40;;;;;;;9.93;4.40;;;8.90;72.50;;;;;;5041838;28;20244;-76
2022/09/22 03:56:10;;;;;;;12.45;5.30;;;8.90;72.50;;;;;;5043601;28;20471;-76
2022/09/22 03:58:40;;;;;;;9.57;4.57;;;8.80;72.50;;;;;;5043852;28;20549;-76
2022/09/22 04:01:10;;;;;;;8.18;4.78;;;8.80;72.50;;;;;;5042455;28;20991;-76
2022/09/22 04:03:39;;;;;;;9.83;5.30;;;8.80;72.50;;;;;;5044650;28;20228;-76
2022/09/22 04:06:08;;;;;;;9.00;4.80;;;8.80;72.60;;;;;;5043588;28;20455;-77
2022/09/22 04:08:36;;;;;;;8.02;3.80;;;8.70;72.60;;;;;;5045551;28;20607;-75
2022/09/22 04:11:05;;;;;;;8.93;3.90;;;8.70;72.60;;;;;;5045643;28;20231;-75
2022/09/22 04:13:34;;;;;;;7.40;3.90;;;8.70;72.60;;;;;;5044888;28;20560;-76
2022/09/22 04:16:04;;;;;;;10.27;4.15;;;8.70;72.60;;;;;;5046057;28;20646;-77
2022/09/22 04:18:32;;;;;;;10.00;5.10;;;8.70;72.60;;;;;;5044479;28;20207;-76
2022/09/22 04:21:00;;;;;;;11.13;6.05;;;8.70;72.60;;;;;;5044210;28;20257;-77
2022/09/22 04:23:28;;;;;;;11.82;5.40;;;8.70;72.50;;;;;;5044202;28;20232;-75
2022/09/22 04:25:56;;;;;;;16.08;6.43;;;8.70;72.60;;;;;;5044256;28;20250;-77
2022/09/22 04:28:24;;;;;;;18.13;7.57;;;8.60;72.50;;;;;;5042156;28;20955;-76
2022/09/22 04:30:51;;;;;;;22.33;8.38;;;8.60;72.50;;;;;;5041774;28;20221;-78
2022/09/22 04:33:22;;;;;;;18.75;7.90;;;8.60;72.50;;;;;;5044330;28;20818;-78
2022/09/22 04:35:50;;;;;;;18.23;8.25;;;8.60;72.60;;;;;;5048419;28;20238;-78
2022/09/22 04:38:18;;;;;;;12.98;5.70;;;8.60;72.60;;;;;;5041562;28;20200;-78
2022/09/22 04:40:48;;;;;;;15.88;6.88;;;8.60;72.60;;;;;;5043641;28;20205;-78
2022/09/22 04:43:16;;;;;;;14.40;6.57;;;8.60;72.50;;;;;;5044505;28;20722;-78
2022/09/22 04:45:45;;;;;;;15.93;7.53;;;8.60;72.50;;;;;;5049518;28;20230;-78
2022/09/22 04:48:13;;;;;;;20.63;9.35;;;8.60;72.50;;;;;;5037654;28;20201;-77
2022/09/22 04:50:42;;;;;;;24.77;11.75;;;8.60;72.50;;;;;;5045217;28;20228;-77
2022/09/22 04:53:15;;;;;;;24.85;12.13;;;8.50;72.50;;;;;;5044489;28;20270;-76
2022/09/22 04:55:43;;;;;;;23.75;10.98;;;8.50;72.50;;;;;;5044465;28;20204;-76
2022/09/22 04:58:11;;;;;;;24.08;11.18;;;8.50;72.60;;;;;;5040592;28;20273;-76
2022/09/22 05:00:39;;;;;;;31.55;12.38;;;8.50;72.60;;;;;;5041649;28;20227;-77
2022/09/22 05:03:10;;;;;;;32.33;14.52;;;8.50;72.60;;;;;;5044593;28;20285;-77
2022/09/22 05:05:39;;;;;;;47.67;18.90;;;8.50;72.60;;;;;;5042348;28;20235;-77
2022/09/22 05:08:09;;;;;;;63.47;26.63;;;8.50;72.60;;;;;;5039838;28;20205;-78
2022/09/22 05:10:36;;;;;;;60.95;23.73;;;8.50;72.60;;;;;;5044324;28;21095;-77
2022/09/22 05:13:07;;;;;;;33.47;14.68;;;8.50;72.50;;;;;;5043886;28;20258;-77
2022/09/22 05:15:36;;;;;;;20.02;7.97;;;8.50;72.50;;;;;;5040327;28;20204;-77
2022/09/22 05:18:04;;;;;;;17.25;8.07;;;8.40;72.50;;;;;;5050060;28;20232;-77
2022/09/22 05:20:32;;;;;;;20.25;8.90;;;8.40;72.50;;;;;;5047701;28;20227;-78
2022/09/22 05:23:00;;;;;;;17.85;7.90;;;8.40;72.60;;;;;;5048875;28;20200;-76
2022/09/22 05:25:29;;;;;;;24.02;8.45;;;8.40;72.60;;;;;;5046579;28;20682;-75
2022/09/22 05:27:57;;;;;;;17.88;8.30;;;8.40;72.60;;;;;;5046057;28;20262;-76
2022/09/22 05:30:27;;;;;;;21.73;8.95;;;8.40;72.60;;;;;;5047180;28;20319;-75
2022/09/22 05:32:55;;;;;;;9.88;5.63;;;8.40;72.70;;;;;;5040864;28;20637;-75
2022/09/22 05:35:25;;;;;;;16.52;8.48;;;8.40;72.70;;;;;;5046792;28;20732;-76
2022/09/22 05:37:53;;;;;;;11.98;6.80;;;8.40;72.80;;;;;;5047962;28;20250;-76
2022/09/22 05:40:24;;;;;;;10.35;6.40;;;8.50;72.80;;;;;;5048324;28;20232;-76
2022/09/22 05:42:54;;;;;;;10.90;5.50;;;8.50;72.80;;;;;;5046043;28;20223;-77
2022/09/22 05:45:22;;;;;;;9.05;5.93;;;8.50;72.80;;;;;;5046396;28;20200;-76
2022/09/22 05:47:52;;;;;;;11.45;6.43;;;8.50;72.80;;;;;;5043743;28;20212;-76
2022/09/22 05:50:22;;;;;;;12.73;7.63;;;8.50;72.80;;;;;;5045973;28;20204;-76
2022/09/22 05:52:50;;;;;;;11.43;6.53;;;8.50;72.80;;;;;;5041964;28;20755;-76
2022/09/22 05:55:18;;;;;;;13.80;7.15;;;8.50;72.90;;;;;;5048827;28;20228;-76
2022/09/22 05:57:46;;;;;;;14.15;7.32;;;8.50;72.80;;;;;;5042501;28;20209;-77
2022/09/22 06:00:15;;;;;;;10.48;6.07;;;8.50;72.90;;;;;;5046401;28;20235;-75
2022/09/22 06:02:43;;;;;;;14.98;7.20;;;8.50;72.90;;;;;;5046435;28;20285;-76
2022/09/22 06:05:12;;;;;;;13.10;8.15;;;8.50;73.00;;;;;;5051158;28;20710;-75
2022/09/22 06:07:43;;;;;;;13.02;8.15;;;8.50;73.10;;;;;;5057193;28;20645;-77
2022/09/22 06:10:11;;;;;;;14.20;8.13;;;8.60;73.20;;;;;;5048904;28;20278;-77
2022/09/22 06:12:39;;;;;;;16.10;9.63;;;8.60;73.30;;;;;;5042969;28;20220;-76
2022/09/22 06:15:08;;;;;;;11.05;7.38;;;8.60;73.30;;;;;;5043198;28;20966;-76
2022/09/22 06:17:38;;;;;;;12.48;7.47;;;8.70;73.40;;;;;;5047675;28;20204;-77
2022/09/22 06:20:07;;;;;;;12.68;7.47;;;8.70;73.40;;;;;;5047086;28;20234;-77
2022/09/22 06:22:36;;;;;;;10.23;6.70;;;8.70;73.50;;;;;;5042885;28;20209;-76
2022/09/22 06:25:07;;;;;;;12.13;5.60;;;8.70;73.50;;;;;;5048663;28;20235;-76
2022/09/22 06:27:35;;;;;;;10.65;5.80;;;8.80;73.50;;;;;;5046821;28;20283;-78
2022/09/22 06:30:04;;;;;;;13.90;5.50;;;8.80;73.50;;;;;;5045161;28;20292;-78
2022/09/22 06:32:32;;;;;;;10.23;5.32;;;8.80;73.60;;;;;;5042189;28;20256;-77
2022/09/22 06:35:01;;;;;;;10.65;5.75;;;8.80;73.60;;;;;;5047131;28;20283;-77
2022/09/22 06:37:31;;;;;;;9.95;5.72;;;8.80;73.70;;;;;;5047702;28;20239;-77
2022/09/22 06:39:59;;;;;;;9.05;5.10;;;8.90;73.80;;;;;;5043300;28;20263;-77
2022/09/22 06:42:27;;;;;;;8.75;5.70;;;8.90;73.90;;;;;;5041817;28;20286;-76
2022/09/22 06:44:54;;;;;;;9.85;5.50;;;8.90;74.00;;;;;;5059860;28;20298;-76
2022/09/22 06:47:22;;;;;;;10.25;5.25;;;9.00;74.10;;;;;;5044887;28;20212;-77
2022/09/22 06:49:50;;;;;;;10.37;6.37;;;9.00;74.10;;;;;;5044951;28;20224;-77
2022/09/22 06:52:19;;;;;;;10.50;6.00;;;9.00;74.20;;;;;;5046797;28;20509;-77
2022/09/22 06:54:47;;;;;;;10.68;5.93;;;9.00;74.30;;;;;;5043392;28;20229;-76
2022/09/22 06:57:19;;;;;;;8.52;5.28;;;9.10;74.40;;;;;;5046121;28;20250;-77
2022/09/22 06:59:48;;;;;;;10.05;5.90;;;9.10;74.50;;;;;;5042345;28;21149;-77
2022/09/22 07:02:17;;;;;;;9.60;5.93;;;9.20;74.60;;;;;;5046667;28;20531;-79
2022/09/22 07:04:47;;;;;;;8.53;5.87;;;9.20;74.70;;;;;;5045726;28;20232;-77
2022/09/22 07:07:15;;;;;;;8.83;5.73;;;9.30;74.80;;;;;;5049620;28;20880;-75
2022/09/22 07:09:45;;;;;;;11.68;6.30;;;9.30;74.80;;;;;;5041955;28;20479;-77
2022/09/22 07:12:13;;;;;;;8.80;5.72;;;9.40;74.90;;;;;;5045657;28;20470;-75
2022/09/22 07:14:41;;;;;;;7.47;5.30;;;9.40;74.90;;;;;;5046075;28;20225;-77
2022/09/22 07:17:09;;;;;;;9.27;5.63;;;9.40;75.10;;;;;;5045863;28;20507;-75
2022/09/22 07:19:37;;;;;;;7.60;4.60;;;9.50;75.10;;;;;;5042453;28;20460;-77
2022/09/22 07:22:05;;;;;;;9.10;5.33;;;9.50;75.20;;;;;;5042185;28;20458;-76
2022/09/22 07:24:33;;;;;;;7.77;5.27;;;9.60;75.30;;;;;;5045968;28;20524;-75
2022/09/22 07:27:03;;;;;;;9.80;5.00;;;9.60;75.40;;;;;;5046241;28;20451;-76
2022/09/22 07:29:32;;;;;;;11.23;5.40;;;9.60;75.50;;;;;;5045556;28;20811;-77
2022/09/22 07:32:01;;;;;;;11.53;6.10;;;9.70;75.60;;;;;;5046350;28;20490;-77
2022/09/22 07:34:29;;;;;;;10.33;5.40;;;9.70;75.60;;;;;;5043847;28;20494;-77
2022/09/22 07:36:58;;;;;;;8.07;5.25;;;9.70;75.80;;;;;;5044129;28;21387;-75
2022/09/22 07:39:26;;;;;;;8.20;5.13;;;9.80;75.90;;;;;;5045529;28;20806;-77
2022/09/22 07:41:53;;;;;;;8.45;5.25;;;9.80;75.90;;;;;;5043761;28;21257;-75
2022/09/22 07:47:11;;;;;;;8.17;5.70;;;9.90;76.10;;;;;;5042780;28;20494;-75
2022/09/22 07:49:39;;;;;;;7.40;4.57;;;10.00;76.30;;;;;;5044626;28;20454;-75
2022/09/22 07:52:08;;;;;;;9.33;5.20;;;10.00;76.40;;;;;;5042057;28;20502;-77
2022/09/22 07:54:38;;;;;;;9.80;5.20;;;10.10;76.50;;;;;;5044406;28;20474;-78
2022/09/22 07:57:09;;;;;;;9.10;6.07;;;10.10;76.50;;;;;;5043718;28;20966;-75
2022/09/22 07:59:40;;;;;;;8.10;5.50;;;10.20;76.80;;;;;;5041669;28;20570;-76
2022/09/22 08:02:09;;;;;;;8.40;5.17;;;10.30;76.80;;;;;;5039378;28;20520;-75
2022/09/22 08:04:37;;;;;;;9.23;5.37;;;10.40;76.80;;;;;;5042533;28;20498;-77
2022/09/22 08:07:06;;;;;;;11.83;5.40;;;10.40;76.90;;;;;;5051804;28;20448;-76
2022/09/22 08:09:34;;;;;;;9.33;6.63;;;10.50;76.90;;;;;;5047223;28;20459;-75
2022/09/22 08:12:02;;;;;;;9.10;5.40;;;10.60;77.10;;;;;;5042958;28;20455;-76
2022/09/22 08:14:30;;;;;;;7.80;4.97;;;10.60;77.10;;;;;;5045168;28;20574;-77
2022/09/22 08:17:00;;;;;;;9.97;6.03;;;10.70;77.20;;;;;;5046399;28;20455;-75
2022/09/22 08:19:29;;;;;;;11.67;5.90;;;10.70;77.30;;;;;;5045166;28;20471;-75
2022/09/22 08:21:57;;;;;;;11.37;5.63;;;10.80;77.40;;;;;;5042624;28;20512;-75
2022/09/22 08:24:25;;;;;;;11.67;5.10;;;10.80;77.50;;;;;;5043094;28;20486;-76
2022/09/22 08:26:54;;;;;;;9.43;5.83;;;10.90;77.60;;;;;;5045274;28;20463;-77
2022/09/22 08:29:23;;;;;;;11.47;6.00;;;11.00;77.70;;;;;;5045975;28;20450;-77
2022/09/22 08:31:52;;;;;;;11.50;6.07;;;11.00;77.70;;;;;;5043885;28;20491;-75
2022/09/22 08:34:22;;;;;;;8.97;5.50;;;11.10;77.80;;;;;;5044791;28;20482;-76
2022/09/22 08:36:50;;;;;;;9.90;5.53;;;11.20;77.90;;;;;;5045491;28;20454;-76
2022/09/22 08:39:18;;;;;;;20.53;7.17;;;11.30;78.00;;;;;;5041942;28;20974;-76
2022/09/22 08:41:59;;;;;;;9.93;6.00;;;11.30;78.00;;;;;;5041718;28;20451;-76
2022/09/22 08:44:31;;;;;;;12.27;5.83;;;11.40;78.10;;;;;;5042529;28;20517;-76
2022/09/22 08:47:00;;;;;;;9.53;6.03;;;11.50;78.10;;;;;;5045388;28;20468;-75
2022/09/22 08:52:27;;;;;;;10.53;5.70;;;11.60;78.30;;;;;;5045503;28;20451;-75
2022/09/22 08:54:58;;;;;;;9.90;5.13;;;11.70;78.40;;;;;;5047005;28;20481;-74
2022/09/22 08:57:50;;;;;;;15.53;4.70;;;11.80;78.30;;;;;;5048434;28;20456;-75
2022/09/22 09:00:20;;;;;;;7.17;4.97;;;11.80;78.40;;;;;;5047520;28;20504;-76
2022/09/22 09:02:58;;;;;;;10.00;4.60;;;11.90;78.40;;;;;;5046409;28;20454;-76
2022/09/22 09:06:03;;;;;;;6.83;4.50;;;12.00;78.50;;;;;;5045717;28;20486;-77
2022/09/22 09:09:00;;;;;;;8.87;5.00;;;12.10;78.60;;;;;;4998732;28;20494;-75
2022/09/22 09:11:53;;;;;;;13.70;7.83;;;12.20;78.50;;;;;;5043927;28;20466;-76
2022/09/22 09:14:36;;;;;;;8.23;4.70;;;12.20;78.50;;;;;;5048969;28;21073;-76
2022/09/22 09:17:11;;;;;;;10.93;4.73;;;12.30;78.50;;;;;;5048230;28;20562;-75
2022/09/22 09:19:42;;;;;;;7.80;4.50;;;12.40;78.70;;;;;;5047946;28;20535;-75
2022/09/22 09:22:21;;;;;;;12.07;4.00;;;12.40;78.40;;;;;;5046827;28;20462;-75
2022/09/22 09:24:54;;;;;;;9.87;4.40;;;12.50;78.50;;;;;;5043882;28;20483;-76
2022/09/22 09:27:45;;;;;;;8.57;4.43;;;12.60;78.50;;;;;;5059212;28;20470;-77
2022/09/22 09:30:16;;;;;;;7.60;4.03;;;12.70;78.60;;;;;;5046233;28;20516;-76
2022/09/22 09:32:50;;;;;;;10.43;4.37;;;12.70;78.60;;;;;;5051194;28;20825;-76
2022/09/22 09:35:21;;;;;;;7.97;4.20;;;12.80;78.60;;;;;;5046373;28;21012;-76
2022/09/22 09:37:52;;;;;;;7.73;4.10;;;12.80;78.50;;;;;;5047903;28;20519;-76
2022/09/22 09:40:20;;;;;;;8.53;3.97;;;12.90;78.50;;;;;;5051804;28;21035;-76
2022/09/22 09:42:56;;;;;;;6.60;2.87;;;13.00;78.40;;;;;;5048460;28;20788;-76
2022/09/22 09:45:32;;;;;;;6.50;3.50;;;13.10;78.30;;;;;;5044235;28;20786;-77
2022/09/22 09:48:12;;;;;;;7.00;3.57;;;13.10;78.20;;;;;;5041137;28;20513;-75
2022/09/22 09:50:40;;;;;;;9.00;4.50;;;13.20;78.10;;;;;;5050558;28;20946;-74
2022/09/22 09:53:28;;;;;;;6.57;3.20;;;13.20;78.10;;;;;;5045720;28;20997;-76
2022/09/22 09:55:55;;;;;;;8.20;3.47;;;13.30;78.00;;;;;;5049361;28;20462;-75
2022/09/22 10:01:12;;;;;;;6.50;3.27;;;13.30;77.80;;;;;;5047185;28;20972;-74
2022/09/22 10:03:47;;;;;;;6.60;3.40;;;13.40;77.60;;;;;;5046392;28;20485;-76
2022/09/22 10:06:24;;;;;;;10.20;3.30;;;13.40;77.50;;;;;;5050052;28;20451;-76
2022/09/22 10:08:53;;;;;;;6.40;3.50;;;13.40;77.20;;;;;;5046174;28;20457;-76
2022/09/22 10:11:29;;;;;;;11.87;3.50;;;13.50;77.40;;;;;;5046758;28;21019;-76
2022/09/22 10:13:58;;;;;;;17.20;3.20;;;13.50;77.20;;;;;;5040723;28;20507;-76
2022/09/22 10:16:27;;;;;;;7.00;3.57;;;13.60;77.00;;;;;;5065390;28;21244;-77
2022/09/22 10:19:22;;;;;;;7.83;2.90;;;13.60;76.90;;;;;;5051339;28;20864;-75
2022/09/22 10:21:50;;;;;;;6.00;3.23;;;13.70;76.90;;;;;;5046528;28;20803;-77
2022/09/22 10:24:31;;;;;;;7.43;2.67;;;13.80;76.80;;;;;;5046880;28;20505;-77
2022/09/22 10:26:59;;;;;;;7.03;2.67;;;13.90;76.50;;;;;;5047664;28;20459;-77
2022/09/22 10:29:34;;;;;;;6.83;2.43;;;14.00;76.20;;;;;;5044189;28;20451;-76
2022/09/22 10:32:06;;;;;;;7.20;2.30;;;14.10;76.00;;;;;;5044388;28;20454;-77
2022/09/22 10:34:36;;;;;;;6.30;2.50;;;14.10;75.70;;;;;;5046160;28;20577;-76
2022/09/22 10:37:09;;;;;;;5.27;2.30;;;14.10;75.50;;;;;;5049656;28;20512;-77
2022/09/22 10:39:43;;;;;;;4.50;1.93;;;14.20;75.30;;;;;;5046405;28;20462;-78
2022/09/22 10:42:36;;;;;;;5.53;2.33;;;14.20;75.20;;;;;;5047766;28;20870;-76
2022/09/22 10:45:08;;;;;;;11.93;2.97;;;14.20;75.10;;;;;;5024537;28;21306;-76
2022/09/22 10:47:52;;;;;;;6.00;2.43;;;14.20;75.00;;;;;;5044970;28;20497;-76
2022/09/22 10:50:40;;;;;;;8.53;2.43;;;14.30;74.80;;;;;;5045195;28;20528;-77
2022/09/22 10:53:25;;;;;;;6.53;2.40;;;14.30;74.70;;;;;;5046016;28;20513;-77
2022/09/22 10:56:03;;;;;;;5.53;2.30;;;14.30;74.50;;;;;;5044580;28;21011;-76
2022/09/22 10:58:45;;;;;;;5.83;2.23;;;14.30;74.50;;;;;;5045754;28;20557;-78
2022/09/22 11:01:36;;;;;;;6.07;2.97;;;14.40;74.20;;;;;;5043546;28;20502;-77
2022/09/22 11:04:20;;;;;;;5.87;2.17;;;14.40;73.70;;;;;;5044162;28;20486;-78
2022/09/22 11:13:15;;;;;;;6.40;2.40;;;14.50;73.60;;;;;;5016916;28;20536;-76
2022/09/22 11:16:09;;;;;;;9.23;2.20;;;14.60;73.20;;;;;;5045862;28;20479;-77
2022/09/22 11:19:03;;;;;;;6.57;2.63;;;14.60;73.20;;;;;;5049735;28;20495;-76
2022/09/22 11:21:45;;;;;;;16.17;2.37;;;14.70;73.00;;;;;;5050013;28;20452;-78
2022/09/22 11:24:37;;;;;;;5.97;1.97;;;14.80;72.60;;;;;;5039024;28;20479;-78
2022/09/22 11:27:14;;;;;;;5.93;2.00;;;14.80;72.40;;;;;;5041829;28;20451;-75
2022/09/22 11:30:01;;;;;;;9.00;2.13;;;14.80;72.30;;;;;;5045788;28;20516;-78
2022/09/22 11:33:11;;;;;;;5.53;2.10;;;14.80;72.00;;;;;;5041208;28;20544;-75
2022/09/22 11:36:13;;;;;;;5.83;1.83;;;14.90;71.80;;;;;;5032649;28;20486;-75
2022/09/22 11:39:27;;;;;;;11.70;2.47;;;14.90;71.60;;;;;;5046984;28;21527;-75
2022/09/22 11:42:05;;;;;;;9.10;2.53;;;14.90;71.30;;;;;;5040915;28;20583;-77
2022/09/22 11:44:40;;;;;;;11.80;2.13;;;14.90;71.10;;;;;;5039481;28;20485;-77
2022/09/22 11:47:25;;;;;;;24.67;3.70;;;15.00;70.80;;;;;;5046212;28;20470;-77
2022/09/22 11:50:25;;;;;;;9.80;2.60;;;15.00;70.50;;;;;;5043219;28;20487;-76
2022/09/22 11:53:14;;;;;;;12.20;2.87;;;15.00;70.40;;;;;;5008387;28;20464;-76
2022/09/22 11:55:49;;;;;;;6.23;2.13;;;15.00;70.30;;;;;;5045247;28;21212;-79
2022/09/22 11:58:20;;;;;;;6.47;1.60;;;15.10;70.00;;;;;;5044955;28;20486;-76
2022/09/22 12:00:53;;;;;;;7.00;1.80;;;15.10;70.00;;;;;;5044900;28;20493;-78
2022/09/22 12:03:27;;;;;;;8.03;2.20;;;15.20;69.90;;;;;;5038031;28;20502;-75
2022/09/22 12:06:01;;;;;;;7.50;1.90;;;15.20;69.60;;;;;;5042522;28;20443;-77
2022/09/22 12:08:35;;;;;;;10.10;2.40;;;15.30;69.50;;;;;;5040979;28;20486;-78
2022/09/22 12:11:07;;;;;;;18.10;2.30;;;15.30;69.20;;;;;;5043659;28;20513;-77
2022/09/22 12:13:41;;;;;;;14.73;2.60;;;15.30;68.90;;;;;;5039314;28;20467;-77
2022/09/22 12:16:17;;;;;;;8.10;1.80;;;15.40;68.70;;;;;;5040667;28;20470;-77
2022/09/22 12:18:52;;;;;;;11.90;2.27;;;15.40;68.50;;;;;;5044365;28;20937;-78
2022/09/22 12:21:35;;;;;;;8.93;1.90;;;15.40;67.90;;;;;;5040305;28;20470;-76
2022/09/22 12:24:08;;;;;;;5.70;1.60;;;15.40;67.90;;;;;;5041201;28;20486;-77
2022/09/22 12:26:38;;;;;;;7.33;1.80;;;15.40;67.80;;;;;;5042694;28;20482;-77
2022/09/22 12:29:21;;;;;;;7.00;1.70;;;15.40;67.80;;;;;;5044182;28;20466;-76
2022/09/22 12:31:51;;;;;;;4.60;1.30;;;15.40;67.60;;;;;;5038160;28;20462;-76
2022/09/22 12:34:24;;;;;;;5.17;1.53;;;15.50;67.30;;;;;;5039663;28;20483;-76
2022/09/22 12:36:55;;;;;;;5.73;1.70;;;15.50;67.00;;;;;;5047922;28;20520;-76
2022/09/22 12:39:25;;;;;;;7.27;1.60;;;15.50;66.70;;;;;;5041464;28;20517;-76
2022/09/22 12:41:58;;;;;;;6.33;1.70;;;15.50;66.50;;;;;;5042651;28;20463;-75
2022/09/22 12:44:30;;;;;;;10.20;2.20;;;15.50;66.40;;;;;;5042707;28;20499;-75
2022/09/22 12:47:03;;;;;;;8.40;1.30;;;15.50;66.20;;;;;;5043189;28;20516;-76
2022/09/22 12:49:32;;;;;;;20.63;3.30;;;15.50;66.20;;;;;;5041119;28;20499;-78
2022/09/22 12:52:00;;;;;;;4.33;1.43;;;15.50;66.10;;;;;;5040663;28;20850;-76
2022/09/22 12:54:46;;;;;;;9.17;1.60;;;15.50;66.10;;;;;;5043179;28;20925;-77
2022/09/22 12:57:43;;;;;;;11.20;2.20;;;15.60;65.90;;;;;;5041396;28;20459;-78
2022/09/22 13:00:28;;;;;;;42.60;3.63;;;15.60;65.70;;;;;;5039370;28;20463;-79
2022/09/22 13:03:01;;;;;;;93.17;6.60;;;15.70;65.60;;;;;;5044649;28;20482;-76
2022/09/22 13:05:41;;;;;;;93.53;73.73;;;15.70;65.50;;;;;;5044380;28;20459;-77
2022/09/22 13:08:25;;;;;;;44.40;39.90;;;15.70;65.40;;;;;;5039286;28;20888;-79
2022/09/22 13:10:59;;;;;;;10.10;2.33;;;15.80;65.20;;;;;;5042581;28;20654;-76
2022/09/22 13:13:41;;;;;;;5.23;1.30;;;15.80;64.90;;;;;;5042717;28;21216;-76
2022/09/22 13:16:33;;;;;;;6.73;1.30;;;15.80;64.10;;;;;;5041820;28;20511;-76
2022/09/22 13:19:01;;;;;;;5.50;1.50;;;15.90;63.90;;;;;;5046238;28;20536;-75
2022/09/22 13:21:33;;;;;;;4.70;1.33;;;16.00;63.80;;;;;;5042469;28;20508;-76
2022/09/22 13:24:03;;;;;;;6.87;1.50;;;16.10;63.70;;;;;;5045300;28;20536;-75
2022/09/22 13:26:34;;;;;;;5.07;1.40;;;16.20;63.60;;;;;;5041172;28;20570;-76
2022/09/22 13:29:06;;;;;;;3.90;1.10;;;16.20;62.80;;;;;;5039828;28;20462;-75
2022/09/22 13:31:42;;;;;;;6.03;2.07;;;16.30;62.80;;;;;;5042332;28;21248;-76
2022/09/22 13:34:18;;;;;;;4.40;1.50;;;16.40;62.70;;;;;;5046927;28;20573;-75